Time;durP1;ratioP1;P1;durP2;ratioP2;P2;SDS_P1;SDS_P2;PMS_P1;PMS_P2;Temp;Humidity;BMP_temperature;BMP_pressure;BME280_temperature;BME280_humidity;BME280_pressure;Samples;Min_cycle;Max_cycle;Signal;HPM_P1;HPM_P2
2022/06/17 00:01:44;;;;;;;3.30;2.53;;;;;;;;;;4193247;34;20558;-62
2022/06/17 00:32:52;;;;;;;4.37;3.03;;;;;;;;;;4815115;28;20012;-61
2022/06/17 00:35:18;;;;;;;7.07;3.67;;;;;;;;;;4211392;34;20202;-62
2022/06/17 00:37:44;;;;;;;9.13;2.90;;;;;;;;;;4217387;34;20202;-62
2022/06/17 00:40:20;;;;;;;3.67;3.30;;;;;;;;;;4208040;34;20108;-62
2022/06/17 00:42:47;;;;;;;5.10;3.42;;;;;;;;;;4207542;34;20225;-62
2022/06/17 00:45:35;;;;;;;4.35;3.20;;;;;;;;;;4219465;34;20545;-62
2022/06/17 00:48:09;;;;;;;5.95;3.35;;;;;;;;;;4184528;34;20098;-62
2022/06/17 00:50:55;;;;;;;3.72;3.33;;;;;;;;;;4213582;34;20100;-62
2022/06/17 00:53:26;;;;;;;7.78;3.85;;;;;;;;;;4195737;34;20132;-62
2022/06/17 00:56:01;;;;;;;4.62;3.30;;;;;;;;;;4206422;34;20185;-62
2022/06/17 00:58:29;;;;;;;;;;;;;;;;;;4219597;34;20133;-62
2022/06/17 01:00:58;;;;;;;5.50;3.15;;;;;;;;;;4219669;34;19985;-62
2022/06/17 01:03:30;;;;;;;4.97;3.08;;;;;;;;;;4219252;34;20101;-62
2022/06/17 01:06:10;;;;;;;7.72;3.15;;;;;;;;;;4209833;34;20102;-62
2022/06/17 01:11:31;;;;;;;6.07;3.25;;;;;;;;;;4205547;34;20346;-71
2022/06/17 01:13:58;;;;;;;5.43;2.90;;;;;;;;;;4206010;34;20117;-71
2022/06/17 01:16:35;;;;;;;5.65;3.00;;;;;;;;;;4192990;34;20567;-71
2022/06/17 01:19:22;;;;;;;6.15;2.92;;;;;;;;;;4192415;34;20596;-70
2022/06/17 01:21:58;;;;;;;4.57;3.42;;;;;;;;;;4194336;34;20349;-70
2022/06/17 01:24:25;;;;;;;4.15;3.30;;;;;;;;;;4206179;34;20093;-70
2022/06/17 01:26:51;;;;;;;3.03;2.72;;;;;;;;;;4206404;34;20120;-70
2022/06/17 01:29:17;;;;;;;4.62;3.22;;;;;;;;;;4218989;34;20629;-70
2022/06/17 01:31:48;;;;;;;4.00;2.80;;;;;;;;;;4206381;34;20113;-71
2022/06/17 01:34:14;;;;;;;5.50;3.10;;;;;;;;;;4205945;34;20109;-70
2022/06/17 01:36:41;;;;;;;4.00;2.83;;;;;;;;;;4219306;34;20176;-71
2022/06/17 01:39:07;;;;;;;8.63;3.15;;;;;;;;;;4194778;34;20109;-71
2022/06/17 01:41:33;;;;;;;6.20;3.65;;;;;;;;;;4219008;34;20220;-71
2022/06/17 01:44:15;;;;;;;5.62;3.08;;;;;;;;;;4218876;34;20128;-71
2022/06/17 01:46:43;;;;;;;7.50;2.92;;;;;;;;;;4219260;34;20144;-71
2022/06/17 01:49:21;;;;;;;5.35;3.00;;;;;;;;;;4213641;34;20189;-71
2022/06/17 01:51:56;;;;;;;7.68;3.30;;;;;;;;;;4192147;34;20153;-71
2022/06/17 01:54:46;;;;;;;;;;;;;;;;;;4181113;34;20110;-73
2022/06/17 01:57:16;;;;;;;3.62;2.85;;;;;;;;;;4191419;34;19989;-73
2022/06/17 01:59:46;;;;;;;4.43;3.10;;;;;;;;;;4180979;34;20554;-73
2022/06/17 02:02:15;;;;;;;3.15;2.83;;;;;;;;;;4192313;34;20451;-72
2022/06/17 02:04:45;;;;;;;4.05;3.00;;;;;;;;;;4192392;34;20603;-72
2022/06/17 02:07:20;;;;;;;3.42;3.00;;;;;;;;;;4192189;34;20118;-72
2022/06/17 02:09:46;;;;;;;4.95;3.30;;;;;;;;;;4192135;34;20197;-72
2022/06/17 02:12:14;;;;;;;6.93;3.55;;;;;;;;;;4192109;34;20217;-63
2022/06/17 02:14:40;;;;;;;3.72;3.33;;;;;;;;;;4204708;34;20605;-63
2022/06/17 02:17:07;;;;;;;2.97;2.70;;;;;;;;;;4180841;34;20114;-63
2022/06/17 02:19:35;;;;;;;5.95;3.30;;;;;;;;;;4204647;34;20106;-64
2022/06/17 02:22:10;;;;;;;4.65;2.92;;;;;;;;;;4204785;34;20120;-64
2022/06/17 02:24:37;;;;;;;4.40;2.70;;;;;;;;;;4217586;34;20141;-64
2022/06/17 02:27:05;;;;;;;3.00;2.70;;;;;;;;;;4205849;34;20120;-64
2022/06/17 02:29:33;;;;;;;6.18;3.00;;;;;;;;;;4205545;34;20200;-63
2022/06/17 02:31:59;;;;;;;3.47;2.95;;;;;;;;;;4205799;34;20533;-64
2022/06/17 02:34:26;;;;;;;7.35;3.00;;;;;;;;;;4205486;34;20093;-64
2022/06/17 02:36:56;;;;;;;3.62;2.90;;;;;;;;;;4205691;34;20145;-63
2022/06/17 02:39:22;;;;;;;7.60;2.72;;;;;;;;;;4205470;34;20118;-64
2022/06/17 02:41:50;;;;;;;3.83;2.78;;;;;;;;;;4218527;34;20205;-63
2022/06/17 02:44:38;;;;;;;3.05;2.75;;;;;;;;;;4198070;34;20516;-64
2022/06/17 02:47:06;;;;;;;4.07;2.58;;;;;;;;;;4186111;34;20094;-64
2022/06/17 02:49:34;;;;;;;5.30;2.60;;;;;;;;;;4204553;34;20094;-64
2022/06/17 02:52:03;;;;;;;3.00;2.67;;;;;;;;;;4191674;34;20340;-63
2022/06/17 02:54:33;;;;;;;5.15;3.00;;;;;;;;;;4193901;34;20597;-64
2022/06/17 02:57:00;;;;;;;5.00;2.72;;;;;;;;;;4218335;34;20102;-63
2022/06/17 02:59:41;;;;;;;6.05;2.50;;;;;;;;;;4218124;34;20120;-64
2022/06/17 03:02:27;;;;;;;5.03;3.00;;;;;;;;;;4215033;34;20105;-62
2022/06/17 03:04:53;;;;;;;5.47;2.75;;;;;;;;;;4205555;34;20128;-62
2022/06/17 03:07:22;;;;;;;4.62;2.55;;;;;;;;;;4205271;34;20152;-63
2022/06/17 03:09:48;;;;;;;5.47;2.50;;;;;;;;;;4205313;34;20096;-62
2022/06/17 03:12:20;;;;;;;3.55;2.50;;;;;;;;;;4212647;34;20121;-62
2022/06/17 03:14:55;;;;;;;3.78;2.08;;;;;;;;;;4206101;34;20521;-63
2022/06/17 03:17:23;;;;;;;2.70;2.40;;;;;;;;;;4197907;34;20086;-65
2022/06/17 03:19:50;;;;;;;4.93;2.60;;;;;;;;;;4192423;34;20097;-64
2022/06/17 03:22:16;;;;;;;3.12;2.30;;;;;;;;;;4196621;34;20125;-63
2022/06/17 03:25:07;;;;;;;2.62;2.40;;;;;;;;;;4206480;34;20223;-63
2022/06/17 03:27:38;;;;;;;3.53;2.25;;;;;;;;;;4206709;34;20102;-66
2022/06/17 03:30:05;;;;;;;2.67;2.25;;;;;;;;;;4197537;34;20098;-64
2022/06/17 03:32:34;;;;;;;5.15;2.45;;;;;;;;;;4208112;34;20119;-63
2022/06/17 03:35:00;;;;;;;3.17;2.87;;;;;;;;;;4194042;34;20125;-62
2022/06/17 03:37:42;;;;;;;5.97;2.50;;;;;;;;;;4209766;34;20415;-62
2022/06/17 03:40:41;;;;;;;5.82;2.42;;;;;;;;;;4196658;34;20102;-63
2022/06/17 03:43:19;;;;;;;6.10;2.40;;;;;;;;;;4210619;34;20133;-62
2022/06/17 03:45:53;;;;;;;3.75;2.40;;;;;;;;;;4199612;34;20771;-62
2022/06/17 03:48:33;;;;;;;4.70;2.17;;;;;;;;;;4209582;34;20396;-62
2022/06/17 03:50:59;;;;;;;2.72;2.42;;;;;;;;;;4200586;34;20106;-63
2022/06/17 03:53:32;;;;;;;6.57;2.80;;;;;;;;;;4205446;34;20216;-62
2022/06/17 03:56:06;;;;;;;7.22;2.50;;;;;;;;;;4191538;34;20137;-62
2022/06/17 03:58:33;;;;;;;5.32;2.40;;;;;;;;;;4191121;34;20122;-61
2022/06/17 04:01:02;;;;;;;5.35;2.60;;;;;;;;;;4204794;34;20447;-62
2022/06/17 04:03:32;;;;;;;3.12;2.50;;;;;;;;;;4204011;34;20151;-62
2022/06/17 04:06:05;;;;;;;2.75;2.40;;;;;;;;;;4203952;34;20217;-62
2022/06/17 04:08:32;;;;;;;5.28;2.70;;;;;;;;;;4190835;34;20133;-61
2022/06/17 04:10:58;;;;;;;3.03;2.55;;;;;;;;;;4203810;34;20470;-61
2022/06/17 04:13:27;;;;;;;4.55;2.60;;;;;;;;;;4203764;34;20121;-61
2022/06/17 04:16:24;;;;;;;4.37;2.70;;;;;;;;;;4203614;34;20109;-61
2022/06/17 04:18:50;;;;;;;3.08;2.53;;;;;;;;;;4193202;34;20133;-62
2022/06/17 04:21:16;;;;;;;5.20;2.72;;;;;;;;;;4205861;34;20129;-62
2022/06/17 04:23:42;;;;;;;3.53;2.90;;;;;;;;;;4205794;34;20114;-62
2022/06/17 04:26:29;;;;;;;6.28;2.80;;;;;;;;;;4205787;34;20237;-62
2022/06/17 04:29:03;;;;;;;3.87;2.50;;;;;;;;;;4192851;34;20177;-61
2022/06/17 04:31:32;;;;;;;5.20;2.72;;;;;;;;;;4192795;34;20114;-62
2022/06/17 04:34:04;;;;;;;3.37;2.67;;;;;;;;;;4192711;34;20106;-61
2022/06/17 04:36:39;;;;;;;3.08;2.70;;;;;;;;;;4205566;34;20113;-61
2022/06/17 04:39:14;;;;;;;6.03;2.60;;;;;;;;;;4205725;34;20098;-62
2022/06/17 04:41:41;;;;;;;;;;;;;;;;;;4206382;34;20105;-63
2022/06/17 04:44:12;;;;;;;6.35;2.90;;;;;;;;;;4181488;34;20584;-63
2022/06/17 04:46:55;;;;;;;2.80;2.60;;;;;;;;;;4205417;34;20106;-63
2022/06/17 04:49:22;;;;;;;3.12;2.80;;;;;;;;;;4205559;34;20097;-63
2022/06/17 04:51:50;;;;;;;4.22;3.00;;;;;;;;;;4192528;34;20462;-63
2022/06/17 04:54:17;;;;;;;5.18;2.62;;;;;;;;;;4192429;34;20122;-63
2022/06/17 04:56:48;;;;;;;2.83;2.40;;;;;;;;;;4205338;34;20109;-64
2022/06/17 04:59:18;;;;;;;2.97;2.50;;;;;;;;;;4205421;34;20451;-64
2022/06/17 05:01:47;;;;;;;2.42;2.22;;;;;;;;;;4192604;34;20133;-64
2022/06/17 05:04:12;;;;;;;3.58;2.28;;;;;;;;;;4205405;34;20206;-63
2022/06/17 05:06:38;;;;;;;2.62;2.33;;;;;;;;;;4205407;34;20102;-64
2022/06/17 05:09:11;;;;;;;3.55;2.28;;;;;;;;;;4205689;34;20544;-63
2022/06/17 05:11:41;;;;;;;5.20;2.80;;;;;;;;;;4205626;34;20109;-64
2022/06/17 05:14:25;;;;;;;5.22;2.20;;;;;;;;;;4205343;34;20093;-63
2022/06/17 05:16:51;;;;;;;6.10;2.40;;;;;;;;;;4192435;34;20450;-63
2022/06/17 05:19:20;;;;;;;2.35;2.05;;;;;;;;;;4205499;34;20201;-63
2022/06/17 05:21:46;;;;;;;5.80;2.03;;;;;;;;;;4205334;34;20214;-64
2022/06/17 05:24:12;;;;;;;4.47;2.42;;;;;;;;;;4192279;34;20537;-64
2022/06/17 05:26:38;;;;;;;5.05;2.37;;;;;;;;;;4192673;34;20129;-65
2022/06/17 05:29:07;;;;;;;4.35;2.83;;;;;;;;;;4205499;34;20549;-65
2022/06/17 05:31:33;;;;;;;3.53;2.40;;;;;;;;;;4205441;34;20196;-64
2022/06/17 05:33:59;;;;;;;5.57;2.28;;;;;;;;;;4192193;34;20121;-66
2022/06/17 05:36:25;;;;;;;4.40;2.30;;;;;;;;;;4205157;34;20117;-65
2022/06/17 05:38:50;;;;;;;9.10;2.10;;;;;;;;;;4205285;34;20533;-65
2022/06/17 05:41:19;;;;;;;2.12;1.95;;;;;;;;;;4205218;34;20140;-66
2022/06/17 05:43:46;;;;;;;2.20;1.90;;;;;;;;;;4192789;34;20501;-64
2022/06/17 05:46:12;;;;;;;2.67;2.12;;;;;;;;;;4205283;34;20133;-64
2022/06/17 05:48:38;;;;;;;2.00;1.80;;;;;;;;;;4205588;34;20494;-64
2022/06/17 05:51:04;;;;;;;6.35;2.30;;;;;;;;;;4192430;34;20098;-65
2022/06/17 05:53:30;;;;;;;2.55;1.90;;;;;;;;;;4205477;34;20142;-65
2022/06/17 05:55:56;;;;;;;3.45;2.30;;;;;;;;;;4205024;34;20118;-64
2022/06/17 05:58:23;;;;;;;2.17;1.87;;;;;;;;;;4205009;34;20135;-64
2022/06/17 06:00:49;;;;;;;2.40;1.87;;;;;;;;;;4205049;34;20126;-64
2022/06/17 06:03:20;;;;;;;3.35;1.75;;;;;;;;;;4205004;34;20521;-64
2022/06/17 06:05:46;;;;;;;3.22;1.90;;;;;;;;;;4205039;34;20509;-64
2022/06/17 06:08:12;;;;;;;3.90;2.10;;;;;;;;;;4191464;34;20122;-66
2022/06/17 06:10:38;;;;;;;4.32;2.00;;;;;;;;;;4205283;34;20110;-65
2022/06/17 06:13:04;;;;;;;2.00;1.80;;;;;;;;;;4204872;34;20140;-65
2022/06/17 06:15:39;;;;;;;3.47;2.30;;;;;;;;;;4204856;34;20645;-65
2022/06/17 06:18:05;;;;;;;;;;;;;;;;;;4192803;34;20116;-65
2022/06/17 06:20:31;;;;;;;3.17;2.00;;;;;;;;;;4180665;34;20020;-65
2022/06/17 06:22:57;;;;;;;1.92;1.70;;;;;;;;;;4204682;34;20698;-63
2022/06/17 06:25:24;;;;;;;2.58;2.03;;;;;;;;;;4205073;34;20129;-64
2022/06/17 06:27:50;;;;;;;1.77;1.67;;;;;;;;;;4204812;34;20117;-64
2022/06/17 06:30:18;;;;;;;3.25;1.50;;;;;;;;;;4205012;34;20197;-65
2022/06/17 06:32:56;;;;;;;4.22;1.80;;;;;;;;;;4191726;34;20200;-64
2022/06/17 06:35:25;;;;;;;3.95;2.60;;;;;;;;;;4191874;34;20134;-64
2022/06/17 06:37:51;;;;;;;1.95;1.80;;;;;;;;;;4204726;34;20129;-64
2022/06/17 06:40:18;;;;;;;2.17;1.83;;;;;;;;;;4204959;34;20117;-65
2022/06/17 06:42:46;;;;;;;3.45;1.65;;;;;;;;;;4191582;34;20202;-64
2022/06/17 06:45:16;;;;;;;2.25;1.77;;;;;;;;;;4204823;34;20105;-64
2022/06/17 06:47:43;;;;;;;1.87;1.65;;;;;;;;;;4204640;34;20110;-65
2022/06/17 06:50:18;;;;;;;2.35;2.12;;;;;;;;;;4191954;34;20101;-65
2022/06/17 06:52:44;;;;;;;4.22;1.98;;;;;;;;;;4204684;34;20126;-62
2022/06/17 06:55:11;;;;;;;1.95;1.80;;;;;;;;;;4204485;34;20209;-64
2022/06/17 06:57:59;;;;;;;5.30;2.00;;;;;;;;;;4191636;34;20981;-64
2022/06/17 07:00:29;;;;;;;4.35;1.73;;;;;;;;;;4204442;34;20102;-63
2022/06/17 07:02:55;;;;;;;2.72;1.85;;;;;;;;;;4204298;34;20136;-67
2022/06/17 07:05:21;;;;;;;1.77;1.60;;;;;;;;;;4191874;34;20121;-66
2022/06/17 07:07:48;;;;;;;3.47;1.77;;;;;;;;;;4204710;34;20202;-65
2022/06/17 07:10:25;;;;;;;4.95;1.50;;;;;;;;;;4204336;34;20126;-65
2022/06/17 07:12:52;;;;;;;1.60;1.50;;;;;;;;;;4191665;34;20145;-65
2022/06/17 07:15:19;;;;;;;2.85;1.60;;;;;;;;;;4179841;34;20094;-66
2022/06/17 07:17:59;;;;;;;3.25;1.62;;;;;;;;;;4204228;34;20205;-65
2022/06/17 07:20:28;;;;;;;2.60;1.77;;;;;;;;;;4204308;34;20145;-65
2022/06/17 07:22:54;;;;;;;1.50;1.40;;;;;;;;;;4204288;34;20217;-65
2022/06/17 07:25:21;;;;;;;1.60;1.50;;;;;;;;;;4204430;34;20510;-66
2022/06/17 07:27:47;;;;;;;1.60;1.50;;;;;;;;;;4204434;34;20229;-65
2022/06/17 07:30:20;;;;;;;1.60;1.50;;;;;;;;;;4204052;34;20185;-63
2022/06/17 07:32:46;;;;;;;4.60;1.48;;;;;;;;;;4191131;34;20129;-65
2022/06/17 07:35:13;;;;;;;1.60;1.50;;;;;;;;;;4203997;34;20119;-63
2022/06/17 07:40:24;;;;;;;1.70;1.60;;;;;;;;;;4193189;34;20518;-64
2022/06/17 07:42:50;;;;;;;1.70;1.45;;;;;;;;;;4204094;34;20121;-63
2022/06/17 07:45:18;;;;;;;1.67;1.50;;;;;;;;;;4204042;34;20116;-63
2022/06/17 07:47:44;;;;;;;1.75;1.60;;;;;;;;;;4204173;34;20133;-63
2022/06/17 07:50:15;;;;;;;4.22;1.60;;;;;;;;;;4203794;34;20438;-63
2022/06/17 07:52:41;;;;;;;1.55;1.45;;;;;;;;;;4204012;34;20117;-64
2022/06/17 07:55:08;;;;;;;1.67;1.52;;;;;;;;;;4204167;34;20113;-63
2022/06/17 07:57:34;;;;;;;1.70;1.60;;;;;;;;;;4203836;34;20158;-64
2022/06/17 08:00:00;;;;;;;1.87;1.37;;;;;;;;;;4203892;34;20133;-64
2022/06/17 08:02:26;;;;;;;1.80;1.50;;;;;;;;;;4203768;34;20114;-64
2022/06/17 08:04:52;;;;;;;1.87;1.20;;;;;;;;;;4203916;34;20094;-65
2022/06/17 08:07:18;;;;;;;1.45;1.35;;;;;;;;;;4203778;34;20527;-64
2022/06/17 08:09:44;;;;;;;1.98;1.50;;;;;;;;;;4203721;34;20098;-65
2022/06/17 08:12:13;;;;;;;2.03;1.60;;;;;;;;;;4203783;34;20196;-65
2022/06/17 08:14:47;;;;;;;1.37;1.30;;;;;;;;;;4203604;34;20124;-65
2022/06/17 08:17:15;;;;;;;1.10;1.10;;;;;;;;;;4203671;34;20114;-64
2022/06/17 08:19:43;;;;;;;1.20;1.10;;;;;;;;;;4203578;34;20145;-65
2022/06/17 08:22:10;;;;;;;1.20;1.20;;;;;;;;;;4203705;34;20114;-64
2022/06/17 08:24:36;;;;;;;3.35;1.42;;;;;;;;;;4203780;34;20109;-64
2022/06/17 08:27:03;;;;;;;1.92;1.83;;;;;;;;;;4203547;34;20229;-64
2022/06/17 08:29:29;;;;;;;1.80;1.70;;;;;;;;;;4190842;34;20090;-64
2022/06/17 08:32:44;;;;;;;1.67;1.58;;;;;;;;;;4206016;34;20106;-63
2022/06/17 08:34:42;;;;;;;1.77;1.60;;;;;;;;;;4205739;34;20281;-63
2022/06/17 08:37:10;;;;;;;1.62;1.52;;;;;;;;;;4192829;34;20537;-63
2022/06/17 08:39:36;;;;;;;1.50;1.40;;;;;;;;;;4205598;34;20114;-63
2022/06/17 08:42:26;;;;;;;4.90;1.75;;;;;;;;;;4205657;34;20106;-62
2022/06/17 08:45:14;;;;;;;2.97;1.25;;;;;;;;;;4193227;34;20473;-63
2022/06/17 08:47:56;;;;;;;1.87;1.30;;;;;;;;;;4193073;34;20179;-63
2022/06/17 08:50:28;;;;;;;1.42;1.33;;;;;;;;;;4192475;34;20122;-62
2022/06/17 08:52:55;;;;;;;7.40;1.67;;;;;;;;;;4205611;34;20177;-61
2022/06/17 08:55:31;;;;;;;1.30;1.20;;;;;;;;;;4192840;34;20133;-61
2022/06/17 08:58:04;;;;;;;1.42;1.33;;;;;;;;;;4205563;34;20121;-63
2022/06/17 09:00:33;;;;;;;1.65;1.55;;;;;;;;;;4205515;34;20603;-63
2022/06/17 09:03:37;;;;;;;1.15;1.15;;;;;;;;;;4205436;34;20438;-64
2022/06/17 09:06:37;;;;;;;3.22;1.73;;;;;;;;;;4204267;34;20597;-64
2022/06/17 09:09:31;;;;;;;2.25;1.62;;;;;;;;;;4205427;34;20108;-64
2022/06/17 09:12:06;;;;;;;1.55;1.33;;;;;;;;;;4205549;34;20502;-64
2022/06/17 09:15:00;;;;;;;1.55;1.40;;;;;;;;;;4192541;34;20109;-63
2022/06/17 09:17:46;;;;;;;1.85;1.55;;;;;;;;;;4205305;34;20114;-64
2022/06/17 09:20:17;;;;;;;1.20;1.20;;;;;;;;;;4205325;34;20114;-64
2022/06/17 09:22:47;;;;;;;1.40;1.30;;;;;;;;;;4205365;34;20209;-65
2022/06/17 09:25:17;;;;;;;2.67;1.40;;;;;;;;;;4192433;34;20114;-65
2022/06/17 09:27:46;;;;;;;3.53;1.60;;;;;;;;;;4205430;34;20110;-63
2022/06/17 09:30:19;;;;;;;2.28;1.52;;;;;;;;;;4205203;34;20137;-64
2022/06/17 09:33:09;;;;;;;1.40;1.30;;;;;;;;;;4192309;34;20093;-64
2022/06/17 09:36:03;;;;;;;1.40;1.30;;;;;;;;;;4192348;34;20125;-63
2022/06/17 09:38:37;;;;;;;1.67;1.45;;;;;;;;;;4192287;34;20533;-62
2022/06/17 09:41:12;;;;;;;1.30;1.20;;;;;;;;;;4191957;34;20117;-63
2022/06/17 09:43:52;;;;;;;1.30;1.20;;;;;;;;;;4192468;34;20113;-64
2022/06/17 09:46:28;;;;;;;2.22;1.50;;;;;;;;;;4192463;34;20125;-64
2022/06/17 09:49:36;;;;;;;1.50;1.40;;;;;;;;;;4205319;34;20518;-63
2022/06/17 09:52:05;;;;;;;2.55;1.45;;;;;;;;;;4175297;34;20123;-64
2022/06/17 09:54:35;;;;;;;1.30;1.30;;;;;;;;;;4163868;34;20156;-64
2022/06/17 09:57:16;;;;;;;1.20;1.10;;;;;;;;;;4178358;34;20125;-65
2022/06/17 09:59:46;;;;;;;1.00;1.00;;;;;;;;;;4192427;34;20118;-64
2022/06/17 10:02:21;;;;;;;2.15;1.50;;;;;;;;;;4192122;34;20126;-64
2022/06/17 10:04:47;;;;;;;2.25;1.30;;;;;;;;;;4205034;34;20117;-64
2022/06/17 10:07:20;;;;;;;1.92;1.30;;;;;;;;;;4205318;34;20141;-65
2022/06/17 10:10:07;;;;;;;1.65;1.17;;;;;;;;;;4205040;34;20603;-65
2022/06/17 10:13:12;;;;;;;3.12;1.30;;;;;;;;;;4205172;34;20201;-64
2022/06/17 10:19:02;;;;;;;1.60;1.50;;;;;;;;;;4194034;34;20169;-62
2022/06/17 10:21:31;;;;;;;1.42;1.33;;;;;;;;;;4205074;34;20490;-62
2022/06/17 10:24:40;;;;;;;1.60;1.25;;;;;;;;;;4205053;34;21001;-62
2022/06/17 10:27:31;;;;;;;1.25;1.20;;;;;;;;;;4182952;34;20148;-63
2022/06/17 10:30:11;;;;;;;1.60;1.50;;;;;;;;;;4205109;34;20136;-63
2022/06/17 10:32:40;;;;;;;1.55;1.45;;;;;;;;;;4192166;34;20106;-64
2022/06/17 10:35:17;;;;;;;2.25;1.40;;;;;;;;;;4180787;34;20106;-63
2022/06/17 10:37:43;;;;;;;3.12;1.30;;;;;;;;;;4204782;34;20459;-64
2022/06/17 10:40:11;;;;;;;2.45;1.50;;;;;;;;;;4204897;34;20098;-64
2022/06/17 10:42:37;;;;;;;1.40;1.30;;;;;;;;;;4191829;34;20553;-64
2022/06/17 10:45:04;;;;;;;1.83;1.48;;;;;;;;;;4191773;34;20121;-64
2022/06/17 10:47:50;;;;;;;2.80;1.30;;;;;;;;;;4204641;34;20475;-67
2022/06/17 10:50:19;;;;;;;1.50;1.40;;;;;;;;;;4191812;34;20695;-63
2022/06/17 10:52:52;;;;;;;2.05;1.58;;;;;;;;;;4204478;34;20102;-64
2022/06/17 10:55:21;;;;;;;1.45;1.35;;;;;;;;;;4191866;34;20141;-64
2022/06/17 10:58:10;;;;;;;1.73;1.60;;;;;;;;;;4191717;34;20189;-63
2022/06/17 11:00:57;;;;;;;3.47;1.40;;;;;;;;;;4204523;34;20124;-64
2022/06/17 11:03:24;;;;;;;8.68;1.95;;;;;;;;;;4191744;34;20139;-64
2022/06/17 11:06:01;;;;;;;1.60;1.50;;;;;;;;;;4191798;34;20208;-63
2022/06/17 11:08:40;;;;;;;4.18;1.87;;;;;;;;;;4204509;34;20114;-64
2022/06/17 11:13:55;;;;;;;3.72;1.40;;;;;;;;;;4193728;34;20463;-64
2022/06/17 11:16:22;;;;;;;2.20;1.65;;;;;;;;;;4191774;34;20173;-64
2022/06/17 11:18:59;;;;;;;1.37;1.30;;;;;;;;;;4191319;34;20144;-64
2022/06/17 11:21:30;;;;;;;2.12;1.60;;;;;;;;;;4204443;34;20744;-63
2022/06/17 11:23:58;;;;;;;3.28;1.80;;;;;;;;;;4191392;34;20515;-63
2022/06/17 11:26:30;;;;;;;1.98;1.50;;;;;;;;;;4191519;34;20205;-63
2022/06/17 11:29:20;;;;;;;2.60;1.70;;;;;;;;;;4204177;34;20124;-63
2022/06/17 11:31:49;;;;;;;2.47;1.77;;;;;;;;;;4191608;34;20446;-63
2022/06/17 11:34:17;;;;;;;4.10;1.70;;;;;;;;;;4204061;34;20129;-63
2022/06/17 11:36:57;;;;;;;1.87;1.75;;;;;;;;;;4204058;34;20097;-63
2022/06/17 11:39:32;;;;;;;7.15;1.90;;;;;;;;;;4191371;34;20129;-64
2022/06/17 11:42:00;;;;;;;1.70;1.60;;;;;;;;;;4191435;34;20114;-63
2022/06/17 11:44:26;;;;;;;2.28;1.95;;;;;;;;;;4191076;34;20093;-66
2022/06/17 11:46:55;;;;;;;2.83;2.00;;;;;;;;;;4204088;34;20441;-66
2022/06/17 11:49:21;;;;;;;3.90;1.62;;;;;;;;;;4191166;34;20213;-64
2022/06/17 11:51:50;;;;;;;6.45;1.90;;;;;;;;;;4204307;34;20136;-64
2022/06/17 11:54:23;;;;;;;8.23;1.80;;;;;;;;;;4203886;34;20144;-61
2022/06/17 11:56:50;;;;;;;2.22;1.62;;;;;;;;;;4191100;34;20118;-66
2022/06/17 11:59:20;;;;;;;3.85;1.70;;;;;;;;;;4203790;34;20124;-65
2022/06/17 12:02:05;;;;;;;3.33;1.83;;;;;;;;;;4203865;34;20110;-65
2022/06/17 12:04:46;;;;;;;4.15;1.90;;;;;;;;;;4191037;34;20106;-64
2022/06/17 12:07:40;;;;;;;5.45;1.95;;;;;;;;;;4205989;34;20198;-63
2022/06/17 12:10:40;;;;;;;3.80;2.03;;;;;;;;;;4193375;34;20094;-62
2022/06/17 12:13:12;;;;;;;1.80;1.50;;;;;;;;;;4205997;34;20121;-63
2022/06/17 12:15:44;;;;;;;2.42;1.80;;;;;;;;;;4205881;34;20189;-63
2022/06/17 12:18:17;;;;;;;5.35;1.70;;;;;;;;;;4193100;34;20108;-63
2022/06/17 12:21:14;;;;;;;3.45;1.70;;;;;;;;;;4205954;34;20090;-64
2022/06/17 12:23:47;;;;;;;5.03;1.90;;;;;;;;;;4180129;34;20447;-65
2022/06/17 12:26:27;;;;;;;1.67;1.58;;;;;;;;;;4192909;34;20116;-66
2022/06/17 12:29:03;;;;;;;4.57;1.70;;;;;;;;;;4192847;34;20095;-66
2022/06/17 12:31:38;;;;;;;1.60;1.50;;;;;;;;;;4205984;34;20096;-64
2022/06/17 12:34:13;;;;;;;4.62;1.60;;;;;;;;;;4192763;34;20113;-67
2022/06/17 12:36:59;;;;;;;1.83;1.70;;;;;;;;;;4192927;34;20110;-62
2022/06/17 12:39:35;;;;;;;1.92;1.70;;;;;;;;;;4205908;34;20189;-69
2022/06/17 12:42:22;;;;;;;3.75;2.08;;;;;;;;;;4192871;34;20098;-65
2022/06/17 12:45:00;;;;;;;3.95;1.62;;;;;;;;;;4205666;34;20098;-64
2022/06/17 12:47:51;;;;;;;3.15;2.85;;;;;;;;;;4205780;34;20102;-64
2022/06/17 12:53:20;;;;;;;6.65;1.75;;;;;;;;;;4205503;34;20120;-66
2022/06/17 12:56:27;;;;;;;2.35;1.50;;;;;;;;;;4192957;34;20113;-67
2022/06/17 12:58:53;;;;;;;3.92;1.70;;;;;;;;;;4205454;34;20098;-72
2022/06/17 13:01:39;;;;;;;4.12;1.80;;;;;;;;;;4192605;34;20454;-65
2022/06/17 13:04:07;;;;;;;1.83;1.55;;;;;;;;;;4205417;34;20089;-67
2022/06/17 13:06:56;;;;;;;3.33;1.50;;;;;;;;;;4192549;34;20105;-66
2022/06/17 13:09:25;;;;;;;4.25;1.75;;;;;;;;;;4211038;34;20133;-64
2022/06/17 13:12:19;;;;;;;3.60;1.62;;;;;;;;;;4197452;34;20439;-63
2022/06/17 13:15:03;;;;;;;5.55;1.70;;;;;;;;;;4204910;34;20112;-65
2022/06/17 13:17:55;;;;;;;6.10;1.57;;;;;;;;;;4205152;34;20109;-64
2022/06/17 13:20:26;;;;;;;3.70;1.70;;;;;;;;;;4205056;34;20188;-65
2022/06/17 13:23:04;;;;;;;4.15;1.80;;;;;;;;;;4196780;34;20145;-66
2022/06/17 13:25:36;;;;;;;2.83;1.80;;;;;;;;;;4187097;34;20121;-66
2022/06/17 13:28:12;;;;;;;3.55;1.67;;;;;;;;;;4199945;34;20130;-65
2022/06/17 13:30:46;;;;;;;1.67;1.58;;;;;;;;;;4200322;34;20095;-67
2022/06/17 13:33:18;;;;;;;3.65;1.55;;;;;;;;;;4199898;34;20113;-66
2022/06/17 13:35:49;;;;;;;2.28;1.75;;;;;;;;;;4209167;34;20464;-66
2022/06/17 13:38:31;;;;;;;1.20;1.20;;;;;;;;;;4192522;34;20141;-64
2022/06/17 13:41:14;;;;;;;1.80;1.45;;;;;;;;;;4190044;34;20124;-65
2022/06/17 13:43:48;;;;;;;2.00;1.58;;;;;;;;;;4191306;34;20543;-66
2022/06/17 13:46:26;;;;;;;4.10;1.58;;;;;;;;;;4190135;34;20129;-64
2022/06/17 13:49:17;;;;;;;2.40;1.80;;;;;;;;;;4201510;34;20522;-63
2022/06/17 13:51:55;;;;;;;1.35;1.25;;;;;;;;;;4205302;34;20129;-67
2022/06/17 13:54:33;;;;;;;3.55;1.83;;;;;;;;;;4192284;34;20122;-71
2022/06/17 13:57:23;;;;;;;2.78;1.67;;;;;;;;;;4192415;34;20514;-64
2022/06/17 13:59:54;;;;;;;1.50;1.40;;;;;;;;;;4192377;34;20202;-64
2022/06/17 14:02:23;;;;;;;2.60;1.77;;;;;;;;;;4204253;34;20113;-67
2022/06/17 14:05:00;;;;;;;3.58;1.85;;;;;;;;;;4196823;34;20121;-69
2022/06/17 14:07:53;;;;;;;3.53;1.70;;;;;;;;;;4218833;34;20201;-69
2022/06/17 14:10:30;;;;;;;2.58;1.50;;;;;;;;;;4205602;34;20533;-68
2022/06/17 14:12:56;;;;;;;2.45;1.55;;;;;;;;;;4205683;34;20135;-66
2022/06/17 14:15:31;;;;;;;1.60;1.50;;;;;;;;;;4218475;34;20105;-65
2022/06/17 14:17:58;;;;;;;5.25;3.67;;;;;;;;;;4217359;34;20474;-66
2022/06/17 14:20:30;;;;;;;1.70;1.60;;;;;;;;;;4205809;34;20097;-66
2022/06/17 14:23:01;;;;;;;2.62;1.73;;;;;;;;;;4217775;34;20128;-66
2022/06/17 14:25:45;;;;;;;3.22;1.98;;;;;;;;;;4204361;34;20117;-66
2022/06/17 14:28:31;;;;;;;5.35;1.85;;;;;;;;;;4205413;34;20093;-65
2022/06/17 14:31:31;;;;;;;7.30;2.10;;;;;;;;;;4218883;34;20109;-66
2022/06/17 14:34:04;;;;;;;3.40;2.40;;;;;;;;;;4178171;34;20519;-66
2022/06/17 14:36:48;;;;;;;2.67;2.05;;;;;;;;;;4190865;34;20221;-66
2022/06/17 14:39:39;;;;;;;6.07;2.30;;;;;;;;;;4190847;34;20126;-66
2022/06/17 14:42:20;;;;;;;3.72;2.20;;;;;;;;;;4191037;34;20189;-66
2022/06/17 14:44:51;;;;;;;4.40;2.10;;;;;;;;;;4166872;34;20098;-66
2022/06/17 14:50:14;;;;;;;4.70;1.80;;;;;;;;;;4190843;34;20470;-66
2022/06/17 14:52:45;;;;;;;3.90;1.70;;;;;;;;;;4159402;34;20109;-66
2022/06/17 14:55:36;;;;;;;2.92;1.90;;;;;;;;;;4178471;34;20536;-66
2022/06/17 14:58:02;;;;;;;3.03;2.40;;;;;;;;;;4178049;34;20500;-66
2022/06/17 15:00:40;;;;;;;2.85;1.50;;;;;;;;;;4177839;34;20201;-65
2022/06/17 15:03:35;;;;;;;3.40;1.83;;;;;;;;;;4190958;34;20129;-65
2022/06/17 15:06:03;;;;;;;1.98;1.80;;;;;;;;;;4185778;34;20093;-66
2022/06/17 15:08:44;;;;;;;3.05;1.80;;;;;;;;;;4218365;34;20120;-66
2022/06/17 15:11:16;;;;;;;2.83;1.70;;;;;;;;;;4193408;34;20121;-66
2022/06/17 15:14:08;;;;;;;2.35;2.00;;;;;;;;;;4218754;34;20083;-66
2022/06/17 15:16:49;;;;;;;2.08;1.75;;;;;;;;;;4207105;34;20104;-65
2022/06/17 15:19:36;;;;;;;3.40;1.50;;;;;;;;;;4218425;34;20110;-66
2022/06/17 15:22:26;;;;;;;4.10;1.87;;;;;;;;;;4218017;34;20124;-66
2022/06/17 15:25:26;;;;;;;4.47;1.90;;;;;;;;;;4205596;34;20128;-66
2022/06/17 15:28:03;;;;;;;7.47;1.90;;;;;;;;;;4205409;34;20120;-66
2022/06/17 15:30:36;;;;;;;2.80;1.75;;;;;;;;;;4205155;34;20133;-65
2022/06/17 15:33:15;;;;;;;4.97;2.17;;;;;;;;;;4209051;34;20148;-66
2022/06/17 15:35:41;;;;;;;2.92;2.12;;;;;;;;;;4191394;34;20204;-65
2022/06/17 15:38:18;;;;;;;7.50;2.30;;;;;;;;;;4204114;34;20452;-66
2022/06/17 15:40:44;;;;;;;10.63;2.70;;;;;;;;;;4205476;34;20121;-66
2022/06/17 15:43:16;;;;;;;15.93;2.87;;;;;;;;;;4206313;34;20978;-65
2022/06/17 15:45:46;;;;;;;9.38;2.70;;;;;;;;;;4193484;34;20111;-66
2022/06/17 15:48:29;;;;;;;8.30;2.90;;;;;;;;;;4193551;34;20113;-66
2022/06/17 15:50:58;;;;;;;10.18;2.70;;;;;;;;;;4181890;34;20106;-65
2022/06/17 15:53:35;;;;;;;4.00;2.58;;;;;;;;;;4205954;34;20112;-66
2022/06/17 15:56:06;;;;;;;7.60;2.75;;;;;;;;;;4206068;34;20453;-65
2022/06/17 15:58:36;;;;;;;9.00;2.60;;;;;;;;;;4193761;34;20125;-65
2022/06/17 16:01:16;;;;;;;4.37;2.12;;;;;;;;;;4193007;34;20125;-66
2022/06/17 16:03:58;;;;;;;6.62;2.55;;;;;;;;;;4193241;34;20546;-65
2022/06/17 16:06:33;;;;;;;3.87;2.47;;;;;;;;;;4205930;34;20122;-65
2022/06/17 16:08:59;;;;;;;9.48;2.72;;;;;;;;;;4193340;34;20114;-65